Terminal Aerodrome Forecast
Issued by NWS Nashville, TN

Home | Current Version | Previous Version | Text Only | Print | Product List | Glossary On
Versions: 1 2 3 4 5 6 7 8 9 10 11 12 13 14 15 16 17 18 19 20 21 22 23 24 25 26 27 28 29 30 31 32 33 34 35 36 37 38 39 40 41 42
000
FTUS44 KOHX 070546
TAFBNA
TAF
KBNA 070546Z 0706/0806 16003KT P6SM SCT250
     FM071000 20003KT 5SM BR BKN120
     FM071300 21008G17KT P6SM SCT030 SCT120 SCT250
     FM080000 21007KT P6SM OVC250=

USA.gov is the U.S. government's official web portal to all federal, state and local government web resources and services.